Accueil
METAR-TAF:

METAR-TAF

Aéroports :

Aéroport international de Vladivostok

Vladivostok, Russie

latitude: 43-07N, longitude: 131-56E, altitude: 184 m

Observation

Le bulletin a été fait il y a 11 minutes, à 03:00 UTC
Vent 8 kt de nord/nord-ouest, variant entre ouest/nord-ouest et nord
Température 7°C
Humidité 19%
Pression 1020 hPa
Visibilité 10 km ou plus

METAR: UHWW 220300Z 34004MPS 300V010 9999 NSC 07/M15 Q1020 R25L/0///70 NOSIG RMK QFE764

Heure: 13:11 (03:11 UTC)

Prévision

Le bulletin a été fait il y a 1 heure et 11 minutes, à 02:00 UTC
Prévision valable du 22 à 03 UTC au 23 à 03 UTC
Vent 6 kt de nord
Visibilité 10 km ou plus
Temporairement
du 22 à 03 UTC au 22 à 09 UTC
Vent 12 kt de nord/nord-ouest avec des rafales jusqu'à 21 kt
Evoluant progressivement
du 22 à 09 UTC au 22 à 11 UTC
Visibilité: 3500 m
brume sèche

TAF: UHWW 220200Z 2203/2303 35003MPS 9999 NSC TEMPO 2203/2209 34006G11MPS BECMG 2209/2211 3500 HZ

Observations et prévisions météorologiques de plus de 4000 aéroports (messages METAR et TAF).

Les stations disponibles sont représentées par des disques jaunes et rouges sur la carte.

Passer la souris dessus pour voir le nom de la station.

Cliquer dessus pour voir les observations et prévisions météorologiques.

Pour changer de carte: cliquez sur les boutons verts avec une croix noire pour zoomer, sur le bouton vert avec un tiret pour effectuer un zoom arrière, ou sur les flèches vertes pour les cartes adjacentes.


METAR-TAF: